Historique des mesures à Cassis (13260), France
Quotidien Résumé Juin 28, 2021 Unités:  Métrique/US    US   Métrique
Quotidien Hebdomadaire Mensuel Annuel
  Maximum: Minimum: Moyenne:
Température: 69.6 °F /  20.9 °C 57.2 °F /  14 °C 62.1 °F /  16.7 °C
Point de rosée: 52.3 °F /  11.3 °C 46.8 °F /  8.2 °C 49.5 °F /  9.7 °C
Humidité: 71% 50% 64%
Vitesse du vent: 7.1mph /  11.5km/h - 2.1mph /  3.4km/h
Rafales: 10.5mph /  16.9km/h - -
Vent- - SSE
Pression: 30.1 in /  1019.6 hPa 30 in /  1015.1 hPa -
Précipitations: 0 in /  0.0 mm    
Historical Graphs
 
 
Mesures pour : Juin 28, 2021
Heure Temperature Point de rosée Pression Vent Vitesse du vent Rafales Humidité Pluie (par heure)
00:11 58.6 °F /  14.8 °C 49.3 °F /  9.6 °C 30.1in /  1019.6hPa NNW 2.7mph /  4.3km/h 4.5mph /  7.2km/h 71% 0in /  0.0mm
01:11 58.3 °F /  14.6 °C 48.6 °F /  9.2 °C 30.1in /  1019.3hPa NW 2.2mph /  3.6km/h 5.3mph /  8.6km/h 70% 0in /  0.0mm
02:11 58.8 °F /  14.9 °C 48.2 °F /  9 °C 30.1in /  1018.7hPa NNW 2.9mph /  4.7km/h 4.5mph /  7.2km/h 68% 0in /  0.0mm
03:11 58.8 °F /  14.9 °C 48.7 °F /  9.3 °C 30.1in /  1018.5hPa North 1.6mph /  2.5km/h 4.7mph /  7.6km/h 69% 0in /  0.0mm
04:11 58.6 °F /  14.8 °C 48.6 °F /  9.2 °C 30.1in /  1018.2hPa Calm   2.5mph /  4km/h 69% 0in /  0.0mm
05:11 57.6 °F /  14.2 °C 47.8 °F /  8.8 °C 30.1in /  1017.8hPa NW 2.2mph /  3.6km/h 3.1mph /  5km/h 70% 0in /  0.0mm
06:11 57.6 °F /  14.2 °C 47.8 °F /  8.8 °C 30.1in /  1017.7hPa Calm   3.1mph /  5km/h 70% 0in /  0.0mm
07:11 57.7 °F /  14.3 °C 47.7 °F /  8.7 °C 30.1in /  1017.6hPa Calm   2.9mph /  4.7km/h 69% 0in /  0.0mm
08:11 57.2 °F /  14 °C 46.8 °F /  8.2 °C 30.1in /  1017.7hPa Calm   2.5mph /  4km/h 68% 0in /  0.0mm
09:11 59.2 °F /  15.1 °C 48.2 °F /  9 °C 30.1in /  1017.9hPa Calm   4mph /  6.5km/h 67% 0in /  0.0mm
10:11 61.7 °F /  16.5 °C 48.9 °F /  9.4 °C 30.1in /  1017.9hPa East 3.6mph /  5.8km/h 5.3mph /  8.6km/h 63% 0in /  0.0mm
11:11 63.9 °F /  17.7 °C 49.6 °F /  9.8 °C 30.1in /  1017.5hPa ESE 2.9mph /  4.7km/h 9.2mph /  14.8km/h 60% 0in /  0.0mm
12:11 66 °F /  18.9 °C 49.8 °F /  9.9 °C 30in /  1017.4hPa ESE 4.5mph /  7.2km/h 9.4mph /  15.1km/h 56% 0in /  0.0mm
13:11 68.2 °F /  20.1 °C 52.3 °F /  11.3 °C 30in /  1017.1hPa ESE 7.1mph /  11.5km/h 10.5mph /  16.9km/h 57% 0in /  0.0mm
14:11 69.6 °F /  20.9 °C 50.2 °F /  10.1 °C 30in /  1016.6hPa ESE 6.7mph /  10.8km/h 9.6mph /  15.5km/h 50% 0in /  0.0mm
15:11 68.5 °F /  20.3 °C 49.3 °F /  9.6 °C 30in /  1015.9hPa ESE 3.8mph /  6.1km/h 8.3mph /  13.3km/h 50% 0in /  0.0mm
16:11 67.3 °F /  19.6 °C 51.1 °F /  10.6 °C 30in /  1015.9hPa Calm   5.2mph /  8.3km/h 56% 0in /  0.0mm
17:11 66 °F /  18.9 °C 51.3 °F /  10.7 °C 30in /  1015.7hPa Calm   3.1mph /  5km/h 59% 0in /  0.0mm
18:11 65.1 °F /  18.4 °C 50.4 °F /  10.2 °C 30in /  1015.7hPa Calm   7.1mph /  11.5km/h 59% 0in /  0.0mm
19:11 63.9 °F /  17.7 °C 50.2 °F /  10.1 °C 30in /  1015.6hPa SE 2.2mph /  3.6km/h 4.5mph /  7.2km/h 61% 0in /  0.0mm
20:11 62.6 °F /  17 °C 49.5 °F /  9.7 °C 30in /  1015.7hPa ESE 2.2mph /  3.6km/h 3.6mph /  5.8km/h 62% 0in /  0.0mm
21:11 61.9 °F /  16.6 °C 50 °F /  10 °C 30in /  1015.5hPa Calm   5.6mph /  9km/h 65% 0in /  0.0mm
22:11 61.3 °F /  16.3 °C 50.4 °F /  10.2 °C 30in /  1015.2hPa ENE 2.5mph /  4km/h 8.5mph /  13.7km/h 67% 0in /  0.0mm
23:11 61.2 °F /  16.2 °C 51.1 °F /  10.6 °C 30in /  1015.1hPa SE 4mph /  6.5km/h 7.4mph /  11.9km/h 69% 0in /  0.0mm
Observations météo à CASSIS
WU-History script by Weather Underground - 2 mb